createdAt,value
2018-03-27T00:00:53.826Z,101459.85
2018-03-27T00:03:23.188Z,101461.95
2018-03-27T00:05:55.286Z,101463.62
2018-03-27T00:08:23.703Z,101466.55
2018-03-27T00:10:54.458Z,101461.95
2018-03-27T00:13:23.982Z,101465.72
2018-03-27T00:15:53.227Z,101466.56
2018-03-27T00:18:21.909Z,101466.97
2018-03-27T00:20:52.005Z,101462.78
2018-03-27T00:23:20.375Z,101467.39
2018-03-27T00:25:49.335Z,101469.45
2018-03-27T00:28:29.433Z,101466.56
2018-03-27T00:31:11.426Z,101461.94
2018-03-27T00:33:51.778Z,101461.52
2018-03-27T00:36:33.430Z,101464.03
2018-03-27T00:39:14.601Z,101462.77
2018-03-27T00:44:55.834Z,101466.55
2018-03-27T00:47:24.423Z,101470.73
2018-03-27T00:49:54.551Z,101462.38
2018-03-27T00:52:23.267Z,101461.55
2018-03-27T00:54:51.888Z,101467.80
2018-03-27T00:57:21.633Z,101466.55
2018-03-27T00:59:51.226Z,101464.44
2018-03-27T01:02:21.049Z,101465.72
2018-03-27T01:04:50.435Z,101457.37
2018-03-27T01:07:19.632Z,101454.85
2018-03-27T01:09:49.666Z,101455.67
2018-03-27T01:12:18.009Z,101457.37
2018-03-27T01:14:47.449Z,101454.02
2018-03-27T01:17:16.490Z,101459.88
2018-03-27T01:19:45.427Z,101453.61
2018-03-27T01:22:13.769Z,101459.86
2018-03-27T01:24:42.553Z,101457.77
2018-03-27T01:27:12.297Z,101457.36
2018-03-27T01:29:41.072Z,101458.62
2018-03-27T01:32:09.661Z,101466.56
2018-03-27T01:34:40.553Z,101469.08
2018-03-27T01:37:09.187Z,101469.47
2018-03-27T01:39:38.659Z,101466.98
2018-03-27T01:42:07.501Z,101467.82
2018-03-27T01:44:36.577Z,101474.90
2018-03-27T01:47:05.746Z,101473.67
2018-03-27T01:49:34.514Z,101471.98
2018-03-27T01:52:04.009Z,101466.53
2018-03-27T01:54:32.753Z,101475.34
2018-03-27T01:57:01.092Z,101472.81
2018-03-27T01:59:29.686Z,101473.66
2018-03-27T02:01:59.209Z,101474.09
2018-03-27T02:04:27.550Z,101477.00
2018-03-27T02:06:56.924Z,101473.65
2018-03-27T02:09:25.312Z,101476.17
2018-03-27T02:11:59.240Z,101477.84
2018-03-27T02:14:33.173Z,101474.50
2018-03-27T02:17:07.489Z,101480.34
2018-03-27T02:19:41.715Z,101476.58
2018-03-27T02:22:11.342Z,101469.06
2018-03-27T02:24:42.147Z,101475.32
2018-03-27T02:27:11.513Z,101470.33
2018-03-27T02:29:40.156Z,101470.31
2018-03-27T02:32:09.851Z,101469.89
2018-03-27T02:34:40.022Z,101465.30
2018-03-27T02:37:08.415Z,101469.47
2018-03-27T02:39:37.479Z,101471.16
2018-03-27T02:42:06.271Z,101478.69
2018-03-27T02:44:34.765Z,101472.39
2018-03-27T02:47:04.328Z,101475.76
2018-03-27T02:49:32.724Z,101467.80
2018-03-27T02:52:01.366Z,101471.98
2018-03-27T02:54:29.760Z,101477.02
2018-03-27T02:56:58.467Z,101477.00
2018-03-27T02:59:27.491Z,101472.41
2018-03-27T03:01:56.874Z,101475.75
2018-03-27T03:04:27.435Z,101474.92
2018-03-27T03:06:56.184Z,101471.55
2018-03-27T03:09:25.548Z,101474.06
2018-03-27T03:11:54.880Z,101467.37
2018-03-27T03:14:24.406Z,101469.08
2018-03-27T03:16:53.353Z,101466.96
2018-03-27T03:19:21.978Z,101466.14
2018-03-27T03:21:50.321Z,101468.63
2018-03-27T03:24:18.684Z,101469.08
2018-03-27T03:26:47.453Z,101469.48
2018-03-27T03:29:16.929Z,101473.67
2018-03-27T03:31:45.345Z,101472.82
2018-03-27T03:34:14.976Z,101473.23
2018-03-27T03:36:44.410Z,101478.68
2018-03-27T03:39:13.180Z,101476.99
2018-03-27T03:41:41.558Z,101479.49
2018-03-27T03:44:09.896Z,101477.02
2018-03-27T03:46:40.024Z,101483.28
2018-03-27T03:49:09.231Z,101479.52
2018-03-27T03:51:39.756Z,101477.41
2018-03-27T03:54:09.534Z,101479.94
2018-03-27T03:56:38.050Z,101476.17
2018-03-27T03:59:08.361Z,101482.01
2018-03-27T04:01:36.753Z,101479.49
2018-03-27T04:04:06.095Z,101480.77
2018-03-27T04:06:35.557Z,101480.33
2018-03-27T04:09:04.298Z,101483.27
2018-03-27T04:11:33.896Z,101482.84
2018-03-27T04:14:02.572Z,101487.45
2018-03-27T04:16:32.224Z,101495.81
2018-03-27T04:19:00.829Z,101492.05
2018-03-27T04:21:30.235Z,101492.47
2018-03-27T04:23:58.741Z,101496.64
2018-03-27T04:26:27.467Z,101498.31
2018-03-27T04:28:56.571Z,101501.22
2018-03-27T04:31:25.659Z,101501.66
2018-03-27T04:33:53.997Z,101502.92
2018-03-27T04:36:22.336Z,101506.69
2018-03-27T04:38:51.924Z,101502.49
2018-03-27T04:41:20.901Z,101506.66
2018-03-27T04:43:50.452Z,101502.08
2018-03-27T04:46:20.417Z,101505.83
2018-03-27T04:48:48.770Z,101504.17
2018-03-27T04:51:17.622Z,101510.42
2018-03-27T04:53:47.441Z,101506.25
2018-03-27T04:56:16.632Z,101513.78
2018-03-27T04:58:45.384Z,101513.34
2018-03-27T05:01:14.035Z,101517.11
2018-03-27T05:03:43.014Z,101509.59
2018-03-27T05:06:12.222Z,101516.70
2018-03-27T05:08:41.772Z,101518.36
2018-03-27T05:11:10.511Z,101513.77
2018-03-27T05:13:40.371Z,101515.02
2018-03-27T05:16:10.390Z,101519.61
2018-03-27T05:18:39.945Z,101516.27
2018-03-27T05:21:08.361Z,101515.84
2018-03-27T05:23:37.845Z,101516.27
2018-03-27T05:26:06.416Z,101515.44
2018-03-27T05:28:35.204Z,101518.77
2018-03-27T05:31:04.082Z,101520.87
2018-03-27T05:33:33.205Z,101520.45
2018-03-27T05:36:01.838Z,101519.19
2018-03-27T05:38:31.002Z,101523.38
2018-03-27T05:41:00.126Z,101522.95
2018-03-27T05:43:28.910Z,101535.06
2018-03-27T05:45:57.261Z,101534.25
2018-03-27T05:48:32.789Z,101534.22
2018-03-27T05:51:01.389Z,101539.27
2018-03-27T05:53:29.736Z,101529.65
2018-03-27T05:55:58.927Z,101536.75
2018-03-27T05:58:28.404Z,101539.27
2018-03-27T06:00:56.745Z,101539.70
2018-03-27T06:03:25.094Z,101537.19
2018-03-27T06:05:54.050Z,101532.58
2018-03-27T06:08:22.928Z,101532.56
2018-03-27T06:10:51.416Z,101534.23
2018-03-27T06:13:19.777Z,101534.67
2018-03-27T06:15:48.114Z,101529.23
2018-03-27T06:18:17.112Z,101531.72
2018-03-27T06:20:45.844Z,101535.03
2018-03-27T06:23:15.402Z,101537.96
2018-03-27T06:25:44.311Z,101535.43
2018-03-27T06:28:12.719Z,101532.89
2018-03-27T06:30:41.308Z,101542.94
2018-03-27T06:33:09.800Z,101542.05
2018-03-27T06:35:38.602Z,101543.75
2018-03-27T06:38:07.158Z,101544.60
2018-03-27T06:40:35.654Z,101542.14
2018-03-27T06:43:04.432Z,101550.92
2018-03-27T06:45:34.044Z,101553.86
2018-03-27T06:48:02.400Z,101549.69
2018-03-27T06:50:31.071Z,101557.62
2018-03-27T06:52:59.429Z,101560.55
2018-03-27T06:55:28.077Z,101556.81
2018-03-27T06:57:56.422Z,101558.46
2018-03-27T07:00:25.693Z,101571.00
2018-03-27T07:02:54.059Z,101566.79
2018-03-27T07:05:22.694Z,101568.42
2018-03-27T07:07:51.472Z,101572.59
2018-03-27T07:10:20.237Z,101572.17
2018-03-27T07:12:49.059Z,101570.07
2018-03-27T07:15:18.382Z,101574.25
2018-03-27T07:17:47.612Z,101576.75
2018-03-27T07:20:16.850Z,101583.87
2018-03-27T07:22:45.371Z,101585.53
2018-03-27T07:25:13.724Z,101570.86
2018-03-27T07:27:42.355Z,101579.66
2018-03-27T07:30:11.294Z,101577.96
2018-03-27T07:32:41.245Z,101580.80
2018-03-27T07:35:10.382Z,101584.16
2018-03-27T07:37:39.855Z,101581.70
2018-03-27T07:40:08.937Z,101580.93
2018-03-27T07:42:37.522Z,101579.72
2018-03-27T07:45:07.064Z,101582.64
2018-03-27T07:47:35.743Z,101582.59
2018-03-27T07:50:04.495Z,101583.81
2018-03-27T07:52:33.031Z,101588.44
2018-03-27T07:55:01.515Z,101587.62
2018-03-27T07:57:30.030Z,101581.73
2018-03-27T07:59:58.951Z,101577.53
2018-03-27T08:02:28.256Z,101585.11
2018-03-27T08:04:56.605Z,101585.95
2018-03-27T08:07:25.472Z,101578.87
2018-03-27T08:09:54.717Z,101576.33
2018-03-27T08:12:23.779Z,101577.91
2018-03-27T08:14:52.841Z,101577.91
2018-03-27T08:17:22.088Z,101582.15
2018-03-27T08:19:51.264Z,101576.72
2018-03-27T08:22:20.152Z,101580.50
2018-03-27T08:24:49.111Z,101586.38
2018-03-27T08:27:18.242Z,101584.67
2018-03-27T08:29:46.618Z,101588.44
2018-03-27T08:32:15.810Z,101590.13
2018-03-27T08:34:44.917Z,101590.94
2018-03-27T08:37:13.781Z,101590.12
2018-03-27T08:39:42.353Z,101595.15
2018-03-27T08:42:11.499Z,101596.37
2018-03-27T08:44:40.564Z,101605.12
2018-03-27T08:47:09.724Z,101606.43
2018-03-27T08:49:38.473Z,101611.91
2018-03-27T08:52:06.808Z,101602.27
2018-03-27T08:54:35.314Z,101601.45
2018-03-27T08:57:04.143Z,101600.23
2018-03-27T08:59:32.896Z,101602.35
2018-03-27T09:02:01.984Z,101592.74
2018-03-27T09:04:30.525Z,101594.36
2018-03-27T09:06:58.889Z,101591.77
2018-03-27T09:09:28.182Z,101589.20
2018-03-27T09:11:57.553Z,101584.08
2018-03-27T09:14:26.774Z,101580.62
2018-03-27T09:16:55.334Z,101580.58
2018-03-27T09:19:23.781Z,101588.52
2018-03-27T09:21:52.297Z,101588.06
2018-03-27T09:24:21.044Z,101596.09
2018-03-27T09:26:49.408Z,101590.39
2018-03-27T09:29:17.961Z,101591.63
2018-03-27T09:31:46.681Z,101594.48
2018-03-27T09:34:15.030Z,101588.08
2018-03-27T09:36:44.045Z,101587.95
2018-03-27T09:39:13.459Z,101586.22
2018-03-27T09:41:43.485Z,101587.81
2018-03-27T09:44:12.010Z,101591.95
2018-03-27T09:46:40.562Z,101598.67
2018-03-27T09:49:09.938Z,101596.97
2018-03-27T09:51:38.362Z,101594.00
2018-03-27T09:54:06.791Z,101593.58
2018-03-27T09:56:35.137Z,101593.67
2018-03-27T09:59:03.477Z,101593.72
2018-03-27T10:01:32.907Z,101600.43
2018-03-27T10:04:01.310Z,101601.33
2018-03-27T10:06:29.810Z,101600.16
2018-03-27T10:08:58.429Z,101592.22
2018-03-27T10:11:27.282Z,101594.75
2018-03-27T10:13:56.014Z,101598.11
2018-03-27T10:16:24.357Z,101589.28
2018-03-27T10:18:53.121Z,101594.36
2018-03-27T10:21:21.467Z,101594.34
2018-03-27T10:23:50.143Z,101598.16
2018-03-27T10:26:18.665Z,101600.25
2018-03-27T10:28:47.015Z,101604.52
2018-03-27T10:31:15.370Z,101599.94
2018-03-27T10:33:43.718Z,101599.16
2018-03-27T10:36:12.061Z,101607.16
2018-03-27T10:38:40.417Z,101605.95
2018-03-27T10:41:09.386Z,101606.83
2018-03-27T10:43:37.904Z,101597.58
2018-03-27T10:46:06.313Z,101604.59
2018-03-27T10:48:35.001Z,101608.44
2018-03-27T10:51:03.650Z,101608.83
2018-03-27T10:53:32.337Z,101612.08
2018-03-27T10:56:01.757Z,101612.85
2018-03-27T10:58:30.146Z,101618.31
2018-03-27T11:00:59.919Z,101618.34
2018-03-27T11:03:28.578Z,101614.15
2018-03-27T11:05:57.414Z,101620.97
2018-03-27T11:08:25.821Z,101612.17
2018-03-27T11:10:54.170Z,101614.19
2018-03-27T11:13:23.190Z,101619.91
2018-03-27T11:15:51.667Z,101616.59
2018-03-27T11:18:20.126Z,101615.19
2018-03-27T11:20:49.161Z,101613.53
2018-03-27T11:23:17.887Z,101619.03
2018-03-27T11:25:46.671Z,101615.92
2018-03-27T11:28:15.968Z,101614.41
2018-03-27T11:30:44.580Z,101613.91
2018-03-27T11:33:13.037Z,101614.22
2018-03-27T11:35:41.662Z,101612.61
2018-03-27T11:38:10.055Z,101612.96
2018-03-27T11:40:38.852Z,101610.99
2018-03-27T11:43:07.395Z,101618.09
2018-03-27T11:45:36.620Z,101615.97
2018-03-27T11:48:04.969Z,101617.71
2018-03-27T11:50:33.587Z,101619.95
2018-03-27T11:53:02.179Z,101621.77
2018-03-27T11:55:30.958Z,101622.30
2018-03-27T11:57:59.425Z,101611.91
2018-03-27T12:00:27.905Z,101618.59
2018-03-27T12:02:56.253Z,101618.84
2018-03-27T12:05:24.911Z,101618.55
2018-03-27T12:07:53.429Z,101624.88
2018-03-27T12:10:23.127Z,101623.37
2018-03-27T12:12:51.493Z,101616.61
2018-03-27T12:15:19.830Z,101619.54
2018-03-27T12:17:48.215Z,101619.97
2018-03-27T12:20:16.552Z,101617.52
2018-03-27T12:22:45.426Z,101611.21
2018-03-27T12:25:13.826Z,101614.12
2018-03-27T12:27:42.553Z,101616.80
2018-03-27T12:30:11.310Z,101610.13
2018-03-27T12:32:40.323Z,101607.70
2018-03-27T12:35:08.677Z,101612.56
2018-03-27T12:37:37.369Z,101615.73
2018-03-27T12:40:05.781Z,101608.49
2018-03-27T12:42:34.603Z,101610.18
2018-03-27T12:45:03.680Z,101613.33
2018-03-27T12:47:32.176Z,101608.38
2018-03-27T12:50:00.657Z,101610.94
2018-03-27T12:52:29.489Z,101608.84
2018-03-27T12:54:58.140Z,101604.59
2018-03-27T12:57:26.881Z,101613.33
2018-03-27T12:59:55.471Z,101610.88
2018-03-27T13:02:23.817Z,101606.22
2018-03-27T13:04:52.256Z,101610.34
2018-03-27T13:07:21.106Z,101609.96
2018-03-27T13:09:49.792Z,101606.72
2018-03-27T13:12:18.241Z,101606.83
2018-03-27T13:14:46.591Z,101602.64
2018-03-27T13:17:15.585Z,101605.08
2018-03-27T13:19:44.270Z,101598.40
2018-03-27T13:22:12.952Z,101598.85
2018-03-27T13:24:41.298Z,101603.44
2018-03-27T13:27:09.637Z,101597.86
2018-03-27T13:29:37.999Z,101605.46
2018-03-27T13:32:06.749Z,101600.91
2018-03-27T13:34:35.110Z,101600.88
2018-03-27T13:37:04.487Z,101602.41
2018-03-27T13:39:36.554Z,101601.09
2018-03-27T13:42:04.918Z,101604.80
2018-03-27T13:44:33.442Z,101604.00
2018-03-27T13:47:01.885Z,101591.81
2018-03-27T13:49:30.250Z,101603.74
2018-03-27T13:51:58.597Z,101587.55
2018-03-27T13:54:26.953Z,101604.28
2018-03-27T13:56:55.608Z,101598.97
2018-03-27T13:59:24.265Z,101595.22
2018-03-27T14:01:52.616Z,101598.02
2018-03-27T14:04:21.332Z,101590.84
2018-03-27T14:06:49.737Z,101592.82
2018-03-27T14:09:18.110Z,101585.45
2018-03-27T14:11:46.525Z,101591.48
2018-03-27T14:14:14.930Z,101595.68
2018-03-27T14:16:43.291Z,101583.50
2018-03-27T14:19:11.656Z,101575.03
2018-03-27T14:21:40.323Z,101582.97
2018-03-27T14:24:09.017Z,101578.27
2018-03-27T14:26:37.845Z,101574.80
2018-03-27T14:29:06.929Z,101579.63
2018-03-27T14:31:35.768Z,101562.31
2018-03-27T14:34:04.997Z,101572.94
2018-03-27T14:36:33.810Z,101566.28
2018-03-27T14:39:02.184Z,101575.34
2018-03-27T14:41:30.621Z,101564.44
2018-03-27T14:43:59.646Z,101563.42
2018-03-27T14:46:28.230Z,101563.47
2018-03-27T14:48:56.616Z,101559.36
2018-03-27T14:51:25.248Z,101563.47
2018-03-27T14:53:53.763Z,101563.95
2018-03-27T14:56:22.208Z,101566.65
2018-03-27T14:58:50.924Z,101572.53
2018-03-27T15:01:19.565Z,101562.45
2018-03-27T15:03:47.927Z,101567.19
2018-03-27T15:06:45.830Z,101567.66
2018-03-27T15:09:14.640Z,101563.50
2018-03-27T15:11:44.964Z,101561.34
2018-03-27T15:14:13.354Z,101567.00
2018-03-27T15:16:42.203Z,101565.20
2018-03-27T15:19:10.689Z,101566.24
2018-03-27T15:21:39.081Z,101567.22
2018-03-27T15:24:07.740Z,101576.29
2018-03-27T15:26:36.140Z,101567.36
2018-03-27T15:29:04.772Z,101572.64
2018-03-27T15:31:33.108Z,101576.69
2018-03-27T15:34:01.838Z,101578.11
2018-03-27T15:36:30.188Z,101585.52
2018-03-27T15:38:58.604Z,101583.19
2018-03-27T15:41:26.945Z,101577.90
2018-03-27T15:43:55.415Z,101573.83
2018-03-27T15:46:23.900Z,101585.70
2018-03-27T15:48:52.541Z,101581.92
2018-03-27T15:51:20.893Z,101586.89
2018-03-27T15:53:49.250Z,101580.96
2018-03-27T15:56:17.634Z,101575.59
2018-03-27T15:58:47.390Z,101581.95
2018-03-27T16:01:16.140Z,101570.73
2018-03-27T16:03:44.486Z,101569.99
2018-03-27T16:06:12.853Z,101563.84
2018-03-27T16:08:41.624Z,101568.10
2018-03-27T16:11:10.003Z,101561.05
2018-03-27T16:13:38.353Z,101564.00
2018-03-27T16:16:07.597Z,101558.22
2018-03-27T16:18:35.981Z,101554.08
2018-03-27T16:21:04.334Z,101556.63
2018-03-27T16:23:32.695Z,101557.07
2018-03-27T16:26:01.044Z,101555.79
2018-03-27T16:28:29.416Z,101558.31
2018-03-27T16:30:57.785Z,101561.25
2018-03-27T16:33:26.133Z,101557.51
2018-03-27T16:35:54.937Z,101561.29
2018-03-27T16:38:23.324Z,101567.55
2018-03-27T16:40:51.677Z,101566.74
2018-03-27T16:43:20.034Z,101565.52
2018-03-27T16:45:48.378Z,101564.27
2018-03-27T16:48:16.744Z,101565.16
2018-03-27T16:50:45.100Z,101560.98
2018-03-27T16:53:15.267Z,101562.23
2018-03-27T16:55:43.622Z,101557.23
2018-03-27T16:58:11.974Z,101559.72
2018-03-27T17:00:40.353Z,101568.53
2018-03-27T17:03:08.930Z,101565.61
2018-03-27T17:05:37.284Z,101560.99
2018-03-27T17:08:07.369Z,101566.03
2018-03-27T17:10:35.715Z,101563.52
2018-03-27T17:13:04.433Z,101565.61
2018-03-27T17:15:33.227Z,101568.95
2018-03-27T17:18:02.037Z,101568.95
2018-03-27T17:20:30.388Z,101566.85
2018-03-27T17:22:59.444Z,101573.55
2018-03-27T17:25:27.802Z,101567.70
2018-03-27T17:27:56.287Z,101568.10
2018-03-27T17:30:24.780Z,101569.77
2018-03-27T17:32:53.142Z,101571.05
2018-03-27T17:35:23.326Z,101581.08
2018-03-27T17:37:51.970Z,101581.50
2018-03-27T17:40:20.613Z,101579.40
2018-03-27T17:42:49.439Z,101579.41
2018-03-27T17:45:18.097Z,101581.09
2018-03-27T17:47:46.441Z,101576.46
2018-03-27T17:50:15.169Z,101583.98
2018-03-27T17:52:43.578Z,101585.67
2018-03-27T17:55:11.938Z,101585.67
2018-03-27T17:57:40.642Z,101583.98
2018-03-27T18:00:08.999Z,101587.34
2018-03-27T18:02:37.346Z,101589.02
2018-03-27T18:05:06.055Z,101580.23
2018-03-27T18:07:34.411Z,101578.98
2018-03-27T18:10:03.448Z,101576.89
2018-03-27T18:12:31.977Z,101576.45
2018-03-27T18:15:00.500Z,101571.44
2018-03-27T18:17:29.186Z,101570.62
2018-03-27T18:19:59.256Z,101565.59
2018-03-27T18:22:27.798Z,101557.20
2018-03-27T18:24:56.522Z,101559.72
2018-03-27T18:27:25.781Z,101553.44
2018-03-27T18:29:54.611Z,101556.35
2018-03-27T18:32:23.000Z,101557.61
2018-03-27T18:34:51.946Z,101553.86
2018-03-27T18:37:20.610Z,101547.59
2018-03-27T18:39:49.029Z,101545.91
2018-03-27T18:42:17.618Z,101540.05
2018-03-27T18:44:47.362Z,101544.63
2018-03-27T18:47:16.515Z,101550.07
2018-03-27T18:49:44.893Z,101553.84
2018-03-27T18:52:13.549Z,101560.93
2018-03-27T18:54:42.912Z,101561.35
2018-03-27T18:57:11.675Z,101554.67
2018-03-27T18:59:40.355Z,101558.45
2018-03-27T19:02:08.719Z,101552.19
2018-03-27T19:04:37.150Z,101558.89
2018-03-27T19:07:05.869Z,101561.39
2018-03-27T19:09:34.750Z,101569.33
2018-03-27T19:12:03.432Z,101558.05
2018-03-27T19:14:32.187Z,101560.54
2018-03-27T19:17:00.562Z,101565.97
2018-03-27T19:19:29.414Z,101568.90
2018-03-27T19:21:58.896Z,101562.64
2018-03-27T19:24:27.792Z,101555.11
2018-03-27T19:26:56.798Z,101563.89
2018-03-27T19:29:25.177Z,101560.55
2018-03-27T19:31:54.070Z,101563.86
2018-03-27T19:34:22.632Z,101559.69
2018-03-27T19:36:51.496Z,101560.94
2018-03-27T19:39:20.760Z,101562.59
2018-03-27T19:41:50.422Z,101563.02
2018-03-27T19:44:19.208Z,101563.42
2018-03-27T19:46:47.662Z,101563.45
2018-03-27T19:49:16.990Z,101563.01
2018-03-27T19:51:45.368Z,101570.09
2018-03-27T19:54:15.288Z,101563.00
2018-03-27T19:56:44.048Z,101565.95
2018-03-27T19:59:12.489Z,101572.64
2018-03-27T20:01:41.224Z,101572.64
2018-03-27T20:04:10.008Z,101566.80
2018-03-27T20:06:38.396Z,101564.70
2018-03-27T20:09:07.133Z,101564.27
2018-03-27T20:11:35.533Z,101560.09
2018-03-27T20:14:04.189Z,101561.35
2018-03-27T20:16:32.604Z,101562.61
2018-03-27T20:19:01.222Z,101567.20
2018-03-27T20:21:29.568Z,101567.20
2018-03-27T20:23:58.655Z,101566.36
2018-03-27T20:26:27.005Z,101559.67
2018-03-27T20:28:56.002Z,101555.92
2018-03-27T20:31:24.997Z,101557.19
2018-03-27T20:33:53.831Z,101553.44
2018-03-27T20:36:23.674Z,101551.77
2018-03-27T20:38:52.403Z,101557.16
2018-03-27T20:41:21.506Z,101555.52
2018-03-27T20:43:49.891Z,101563.88
2018-03-27T20:46:18.824Z,101563.44
2018-03-27T20:48:47.480Z,101558.84
2018-03-27T20:51:15.820Z,101559.66
2018-03-27T20:53:44.431Z,101553.00
2018-03-27T20:56:13.198Z,101556.34
2018-03-27T20:58:41.800Z,101554.66
2018-03-27T21:01:10.179Z,101554.68
2018-03-27T21:03:38.899Z,101552.17
2018-03-27T21:06:08.176Z,101553.00
2018-03-27T21:08:37.128Z,101550.90
2018-03-27T21:11:05.548Z,101552.16
2018-03-27T21:13:33.954Z,101551.75
2018-03-27T21:16:02.911Z,101549.66
2018-03-27T21:18:31.346Z,101544.64
2018-03-27T21:21:01.197Z,101540.88
2018-03-27T21:23:31.223Z,101543.38
2018-03-27T21:26:00.269Z,101548.80
2018-03-27T21:28:29.070Z,101550.88
2018-03-27T21:30:59.360Z,101543.38
2018-03-27T21:33:28.154Z,101547.11
2018-03-27T21:35:58.241Z,101545.87
2018-03-27T21:38:34.649Z,101546.70
2018-03-27T21:41:04.587Z,101547.53
2018-03-27T21:43:34.260Z,101545.47
2018-03-27T21:46:02.647Z,101551.73
2018-03-27T21:48:32.285Z,101542.95
2018-03-27T21:51:02.689Z,101542.52
2018-03-27T21:53:32.207Z,101542.11
2018-03-27T21:56:00.991Z,101546.27
2018-03-27T21:58:30.349Z,101541.27
2018-03-27T22:00:59.999Z,101533.33
2018-03-27T22:03:40.333Z,101540.44
2018-03-27T22:06:08.709Z,101534.59
2018-03-27T22:08:38.504Z,101535.86
2018-03-27T22:11:07.269Z,101536.69
2018-03-27T22:13:35.765Z,101533.75
2018-03-27T22:16:04.274Z,101533.74
2018-03-27T22:18:33.661Z,101532.90
2018-03-27T22:21:02.630Z,101532.91
2018-03-27T22:23:31.314Z,101534.58
2018-03-27T22:26:00.969Z,101540.42
2018-03-27T22:28:29.457Z,101531.67
2018-03-27T22:30:58.953Z,101532.91
2018-03-27T22:33:27.362Z,101530.81
2018-03-27T22:35:56.054Z,101530.41
2018-03-27T22:38:25.350Z,101531.27
2018-03-27T22:40:54.078Z,101530.83
2018-03-27T22:43:23.276Z,101530.02
2018-03-27T22:45:51.622Z,101533.34
2018-03-27T22:48:20.434Z,101527.92
2018-03-27T22:50:50.220Z,101532.92
2018-03-27T22:53:18.991Z,101531.69
2018-03-27T22:55:47.888Z,101528.34
2018-03-27T22:58:16.879Z,101532.94
2018-03-27T23:00:45.589Z,101519.98
2018-03-27T23:03:14.079Z,101516.66
2018-03-27T23:05:42.982Z,101524.59
2018-03-27T23:08:11.936Z,101517.06
2018-03-27T23:10:40.281Z,101524.59
2018-03-27T23:13:09.151Z,101525.41
2018-03-27T23:15:38.101Z,101521.23
2018-03-27T23:18:07.596Z,101514.98
2018-03-27T23:20:37.026Z,101518.33
2018-03-27T23:23:06.662Z,101515.41
2018-03-27T23:25:35.346Z,101515.81
2018-03-27T23:28:04.010Z,101519.59
2018-03-27T23:30:32.824Z,101519.16
2018-03-27T23:33:01.611Z,101521.66
2018-03-27T23:35:30.371Z,101528.34
2018-03-27T23:37:59.094Z,101522.08
2018-03-27T23:40:29.180Z,101527.91
2018-03-27T23:42:58.544Z,101527.09
2018-03-27T23:45:26.960Z,101528.73
2018-03-27T23:47:56.274Z,101525.37
2018-03-27T23:50:24.620Z,101532.48
2018-03-27T23:52:53.542Z,101531.23
2018-03-27T23:55:22.936Z,101530.00
2018-03-27T23:57:51.664Z,101528.73
